Terminal Aerodrome Forecast
Issued by NWS Sterling, VA

Current Version | Previous Version | Graphics & Text | Print | Product List | Glossary On
Versions: 1 2 3 4 5 6 7 8 9 10 11 12 13 14 15 16 17 18 19 20 21 22 23 24 25 26 27 28
000
FTUS41 KLWX 031913 AAA
TAFDCA
TAF AMD
KDCA 031913Z 0319/0418 17011KT P6SM OVC040
      TEMPO 0321/0401 5SM -DZ BR OVC015
     FM040100 17007KT 5SM BR OVC010
     FM041100 24005KT 3SM -RA BR OVC010=

USA.gov is the U.S. government's official web portal to all federal, state and local government web resources and services.